Time;durP1;ratioP1;P1;durP2;ratioP2;P2;SDS_P1;SDS_P2;PMS_P1;PMS_P2;Temp;Humidity;BMP_temperature;BMP_pressure;BME280_temperature;BME280_humidity;BME280_pressure;Samples;Min_cycle;Max_cycle;Signal;HPM_P1;HPM_P2
2023/06/12 00:01:03;;;;;;;1999.90;999.90;;;;;;;16.84;100.00;95161.63;5064825;28;20234;-57
2023/06/12 00:03:29;;;;;;;1999.90;999.90;;;;;;;16.80;100.00;95163.75;5065762;28;20222;-58
2023/06/12 00:05:58;;;;;;;1999.90;999.90;;;;;;;16.75;100.00;95173.38;5065846;28;20197;-57
2023/06/12 00:08:26;;;;;;;1999.90;999.90;;;;;;;16.74;100.00;95166.31;5065690;28;20197;-58
2023/06/12 00:10:52;;;;;;;1999.90;999.90;;;;;;;16.68;100.00;95164.59;5065986;28;20174;-57
2023/06/12 00:13:17;;;;;;;1999.90;999.90;;;;;;;16.65;100.00;95165.47;5065750;28;20288;-57
2023/06/12 00:15:43;;;;;;;1999.90;999.90;;;;;;;16.56;100.00;95165.41;5066025;28;20166;-57
2023/06/12 00:18:08;;;;;;;1999.90;999.90;;;;;;;16.53;100.00;95171.81;5066420;28;20169;-57
2023/06/12 00:20:33;;;;;;;1999.90;999.90;;;;;;;16.46;100.00;95166.56;5065534;28;20166;-58
2023/06/12 00:22:59;;;;;;;1999.90;999.90;;;;;;;16.39;100.00;95157.28;5065557;28;20172;-57
2023/06/12 00:25:26;;;;;;;1999.90;999.90;;;;;;;16.37;100.00;95159.72;5065338;28;20173;-58
2023/06/12 00:27:52;;;;;;;1999.90;999.90;;;;;;;16.32;100.00;95159.53;5065336;28;20198;-57
2023/06/12 00:30:17;;;;;;;1999.90;999.90;;;;;;;16.29;100.00;95155.63;5065935;28;20166;-57
2023/06/12 00:32:43;;;;;;;1999.90;999.90;;;;;;;16.24;100.00;95152.69;5065707;28;20203;-57
2023/06/12 00:35:08;;;;;;;1999.90;999.90;;;;;;;16.18;100.00;95146.97;5065711;28;20204;-57
2023/06/12 00:37:33;;;;;;;1999.90;999.90;;;;;;;16.15;100.00;95147.88;5065694;28;20177;-58
2023/06/12 00:39:59;;;;;;;1999.90;999.90;;;;;;;16.08;100.00;95142.59;5065194;28;20233;-57
2023/06/12 00:42:41;;;;;;;1999.90;999.90;;;;;;;16.11;100.00;95146.44;5065140;28;20169;-58
2023/06/12 00:45:07;;;;;;;1999.90;999.90;;;;;;;16.06;100.00;95139.50;5065653;28;20165;-57
2023/06/12 00:47:33;;;;;;;1999.90;999.90;;;;;;;16.08;100.00;95139.06;5065400;28;20200;-58
2023/06/12 00:49:58;;;;;;;1999.90;999.90;;;;;;;16.03;100.00;95140.41;5064949;28;20197;-57
2023/06/12 00:52:26;;;;;;;1999.90;999.90;;;;;;;15.99;100.00;95150.75;5065186;28;20199;-58
2023/06/12 00:54:52;;;;;;;1999.90;999.90;;;;;;;16.00;100.00;95144.03;5064777;28;20170;-58
2023/06/12 00:57:18;;;;;;;1999.90;999.90;;;;;;;15.96;100.00;95142.63;5065382;28;20256;-57
2023/06/12 00:59:44;;;;;;;1999.90;999.90;;;;;;;15.95;100.00;95144.59;5065232;28;20170;-57
2023/06/12 01:02:09;;;;;;;1999.90;999.90;;;;;;;15.90;100.00;95141.63;5064612;28;20165;-58
2023/06/12 01:04:37;;;;;;;1999.90;999.90;;;;;;;15.87;100.00;95143.31;5064661;28;20178;-58
2023/06/12 01:07:10;;;;;;;1999.90;999.90;;;;;;;15.89;100.00;95151.13;5064808;28;20206;-57
2023/06/12 01:10:06;;;;;;;1999.90;999.90;;;;;;;15.86;100.00;95141.75;5065100;28;20174;-58
2023/06/12 01:12:32;;;;;;;1999.90;999.90;;;;;;;15.83;100.00;95137.13;5064837;28;20170;-58
2023/06/12 01:14:58;;;;;;;1999.90;999.90;;;;;;;15.82;100.00;95143.88;5064476;28;20245;-58
2023/06/12 01:17:23;;;;;;;1999.90;999.90;;;;;;;15.79;100.00;95136.47;5064412;28;20186;-58
2023/06/12 01:19:48;;;;;;;1999.90;999.90;;;;;;;15.76;100.00;95136.59;5064356;28;20170;-57
2023/06/12 01:22:20;;;;;;;1999.90;999.90;;;;;;;15.75;100.00;95140.56;5064892;28;20177;-57
2023/06/12 01:24:58;;;;;;;1999.90;999.90;;;;;;;15.70;100.00;95133.63;5064938;28;20197;-58
2023/06/12 01:28:01;;;;;;;1999.90;999.90;;;;;;;15.68;100.00;95143.53;5064098;28;20197;-58
2023/06/12 01:31:01;;;;;;;1999.90;999.90;;;;;;;15.60;100.00;95134.75;5045906;28;20204;-58
2023/06/12 01:33:33;;;;;;;1999.90;999.90;;;;;;;15.60;100.00;95145.75;5064934;28;20174;-58
2023/06/12 01:36:00;;;;;;;1999.90;999.90;;;;;;;15.64;100.00;95140.13;5064814;28;20158;-57
2023/06/12 01:38:28;;;;;;;1999.90;999.90;;;;;;;15.62;100.00;95135.06;5064547;28;20192;-59
2023/06/12 01:40:55;;;;;;;1999.90;999.90;;;;;;;15.63;100.00;95144.09;5064121;28;20204;-58
2023/06/12 01:43:23;;;;;;;1999.90;999.90;;;;;;;15.66;100.00;95138.47;5064005;28;20169;-58
2023/06/12 01:45:49;;;;;;;1999.90;999.90;;;;;;;15.63;100.00;95133.84;5064038;28;20172;-58
2023/06/12 01:48:16;;;;;;;1999.90;999.90;;;;;;;15.60;100.00;95126.50;5063520;28;20198;-58
2023/06/12 01:50:41;;;;;;;1999.90;999.90;;;;;;;15.63;100.00;95130.34;5064485;28;20169;-59
2023/06/12 01:53:08;;;;;;;1999.90;999.90;;;;;;;15.62;100.00;95126.81;5063913;28;20248;-58
2023/06/12 01:55:33;;;;;;;1999.90;999.90;;;;;;;15.59;100.00;95122.16;5063966;28;20170;-58
2023/06/12 01:57:59;;;;;;;1999.90;999.90;;;;;;;15.55;100.00;95124.28;5063868;28;20170;-58
2023/06/12 02:00:24;;;;;;;1999.90;999.90;;;;;;;15.57;100.00;95116.34;5063812;28;20170;-58
2023/06/12 02:02:56;;;;;;;1999.90;999.90;;;;;;;15.55;100.00;95124.28;5063599;28;20221;-58
2023/06/12 02:05:22;;;;;;;1999.90;999.90;;;;;;;15.54;100.00;95120.00;5064359;28;20157;-58
2023/06/12 02:07:47;;;;;;;1999.90;999.90;;;;;;;15.54;100.00;95124.72;5063632;28;20197;-58
2023/06/12 02:10:13;;;;;;;1999.90;999.90;;;;;;;15.53;100.00;95123.97;5064223;28;20192;-58
2023/06/12 02:12:38;;;;;;;1999.90;999.90;;;;;;;15.55;100.00;95121.53;5063692;28;20239;-58
2023/06/12 02:15:04;;;;;;;1999.90;999.90;;;;;;;15.55;100.00;95127.03;5063652;28;20202;-58
2023/06/12 02:17:30;;;;;;;1999.90;999.90;;;;;;;15.54;100.00;95124.72;5063616;28;20166;-58
2023/06/12 02:19:57;;;;;;;1999.90;999.90;;;;;;;15.52;100.00;95121.66;5063426;28;20193;-58
2023/06/12 02:22:22;;;;;;;1999.90;999.90;;;;;;;15.49;100.00;95117.81;5064110;28;20170;-58
2023/06/12 02:24:48;;;;;;;1999.90;999.90;;;;;;;15.44;100.00;95121.09;5066275;28;20173;-58
2023/06/12 02:27:14;;;;;;;1999.90;999.90;;;;;;;15.46;100.00;95124.19;5067645;28;20213;-58
2023/06/12 02:29:39;;;;;;;1999.90;999.90;;;;;;;15.47;100.00;95133.19;5068113;28;20197;-58
2023/06/12 02:32:05;;;;;;;1999.90;999.90;;;;;;;15.45;100.00;95128.13;5067633;28;20200;-58
2023/06/12 02:34:30;;;;;;;1999.90;999.90;;;;;;;15.50;100.00;95135.84;5067947;28;20162;-59
2023/06/12 02:36:55;;;;;;;1999.90;999.90;;;;;;;15.47;100.00;95131.22;5068097;28;20161;-57
2023/06/12 02:39:21;;;;;;;1999.90;999.90;;;;;;;15.48;100.00;95127.25;5067554;28;20162;-57
2023/06/12 02:41:48;;;;;;;1999.90;999.90;;;;;;;15.50;100.00;95118.56;5067344;28;20174;-57
2023/06/12 02:44:14;;;;;;;1999.90;999.90;;;;;;;15.44;100.00;95115.56;5067879;28;20162;-57
2023/06/12 02:47:12;;;;;;;1999.90;999.90;;;;;;;15.45;100.00;95114.34;5067725;28;20209;-58
2023/06/12 02:49:44;;;;;;;1999.90;999.90;;;;;;;15.46;100.00;95118.69;5045267;28;20186;-58
2023/06/12 02:52:09;;;;;;;1999.90;999.90;;;;;;;15.45;100.00;95122.63;5067662;28;20185;-59
2023/06/12 02:54:35;;;;;;;1999.90;999.90;;;;;;;15.47;100.00;95119.44;5067131;28;20170;-59
2023/06/12 02:57:00;;;;;;;1999.90;999.90;;;;;;;15.51;100.00;95115.34;5067114;28;20247;-59
2023/06/12 02:59:25;;;;;;;1999.90;999.90;;;;;;;15.53;100.00;95110.19;5067034;28;20180;-59
2023/06/12 03:01:51;;;;;;;1999.90;999.90;;;;;;;15.55;100.00;95116.00;5066770;28;20170;-58
2023/06/12 03:04:20;;;;;;;1999.90;999.90;;;;;;;15.58;100.00;95106.88;5066644;28;20220;-58
2023/06/12 03:06:55;;;;;;;1999.90;999.90;;;;;;;15.59;100.00;95111.16;5067364;28;20166;-58
2023/06/12 03:09:21;;;;;;;1999.90;999.90;;;;;;;15.61;100.00;95106.00;5067447;28;20184;-59
2023/06/12 03:11:50;;;;;;;1999.90;999.90;;;;;;;15.63;100.00;95102.81;5067268;28;20245;-59
2023/06/12 03:14:17;;;;;;;1999.90;999.90;;;;;;;15.64;100.00;95113.38;5067261;28;20443;-58
2023/06/12 03:16:42;;;;;;;1999.90;999.90;;;;;;;15.66;100.00;95121.19;5066715;28;20174;-59
2023/06/12 03:19:08;;;;;;;1999.90;999.90;;;;;;;15.69;100.00;95112.81;5066814;28;20237;-59
2023/06/12 03:21:33;;;;;;;1999.90;999.90;;;;;;;15.73;100.00;95118.97;5067316;28;20165;-60
2023/06/12 03:23:59;;;;;;;1999.90;999.90;;;;;;;15.72;100.00;95125.69;5066640;28;20236;-59
2023/06/12 03:26:27;;;;;;;1999.90;999.90;;;;;;;15.73;100.00;95118.19;5066553;28;20197;-60
2023/06/12 03:28:53;;;;;;;1999.90;999.90;;;;;;;15.73;100.00;95115.44;5066535;28;20265;-59
2023/06/12 03:31:19;;;;;;;1999.90;999.90;;;;;;;15.77;100.00;95122.38;5066734;28;20170;-59
2023/06/12 03:33:44;;;;;;;1999.90;999.90;;;;;;;15.85;100.00;95123.69;5066914;28;20233;-59
2023/06/12 03:36:11;;;;;;;1999.90;999.90;;;;;;;15.97;100.00;95128.41;5066126;28;20195;-59
2023/06/12 03:38:36;;;;;;;1999.90;999.90;;;;;;;16.04;100.00;95136.44;5067093;28;20165;-59
2023/06/12 03:41:01;;;;;;;1999.90;999.90;;;;;;;16.20;100.00;95139.03;5066839;28;20170;-59
2023/06/12 03:43:27;;;;;;;1999.90;999.90;;;;;;;16.36;100.00;95151.91;5066784;28;20166;-60
2023/06/12 03:45:52;;;;;;;1999.90;999.90;;;;;;;16.63;100.00;95148.59;5066193;28;20197;-59
2023/06/12 03:48:17;;;;;;;1999.90;999.90;;;;;;;16.60;100.00;95149.53;5066598;28;20204;-59
2023/06/12 03:50:43;;;;;;;1999.90;999.90;;;;;;;16.85;100.00;95154.91;5066006;28;20234;-59
2023/06/12 03:53:08;;;;;;;1999.90;999.90;;;;;;;16.81;100.00;95162.53;5066091;28;20169;-59
2023/06/12 03:55:34;;;;;;;1999.90;999.90;;;;;;;16.88;100.00;95160.31;5066001;28;20162;-59
2023/06/12 03:58:00;;;;;;;1999.90;999.90;;;;;;;17.02;100.00;95159.00;5065999;28;20225;-59
2023/06/12 04:00:26;;;;;;;1999.90;999.90;;;;;;;17.25;100.00;95161.28;5066433;28;20237;-60
2023/06/12 04:02:53;;;;;;;1999.90;999.90;;;;;;;17.49;100.00;95159.63;5065811;28;20222;-59
2023/06/12 04:05:20;;;;;;;1999.90;999.90;;;;;;;17.30;100.00;95167.00;5066346;28;20166;-59
2023/06/12 04:07:46;;;;;;;1999.90;999.90;;;;;;;17.63;100.00;95159.06;5066187;28;20190;-59
2023/06/12 04:10:11;;;;;;;1999.90;999.90;;;;;;;17.94;100.00;95168.06;5066221;28;20173;-59
2023/06/12 04:12:37;;;;;;;1999.90;999.90;;;;;;;18.07;100.00;95166.72;5065699;28;20173;-60
2023/06/12 04:15:04;;;;;;;1999.90;999.90;;;;;;;18.27;100.00;95169.84;5065565;28;20166;-60
2023/06/12 04:17:29;;;;;;;1999.90;999.90;;;;;;;18.51;100.00;95173.59;5065571;28;20201;-59
2023/06/12 04:19:56;;;;;;;1999.90;999.90;;;;;;;18.69;100.00;95167.31;5065938;28;20170;-59
2023/06/12 04:22:25;;;;;;;1999.90;999.90;;;;;;;18.95;100.00;95182.38;5066078;28;20237;-58
2023/06/12 04:24:52;;;;;;;1999.90;999.90;;;;;;;19.39;100.00;95166.97;5066005;28;20176;-59
2023/06/12 04:27:17;;;;;;;1999.90;999.90;;;;;;;19.61;100.00;95167.50;5065857;28;20194;-59
2023/06/12 04:29:43;;;;;;;1999.90;999.90;;;;;;;19.31;100.00;95158.19;5065302;28;20170;-59
2023/06/12 04:32:09;;;;;;;1999.90;999.90;;;;;;;19.63;100.00;95167.78;5065567;28;20365;-59
2023/06/12 04:34:39;;;;;;;1999.90;999.90;;;;;;;19.80;100.00;95177.28;5065649;28;20170;-59
2023/06/12 04:37:13;;;;;;;1999.90;999.90;;;;;;;19.78;100.00;95173.47;5065204;28;20181;-59
2023/06/12 04:39:40;;;;;;;1999.90;999.90;;;;;;;19.96;100.00;95174.13;5065696;28;20193;-60
2023/06/12 04:42:10;;;;;;;1999.90;999.90;;;;;;;19.81;100.00;95178.06;5065123;28;20241;-54
2023/06/12 04:44:37;;;;;;;1999.90;999.90;;;;;;;20.00;100.00;95174.75;5065230;28;20245;-53
2023/06/12 04:47:08;;;;;;;1999.90;999.90;;;;;;;20.23;100.00;95171.28;5064323;28;20205;-53
2023/06/12 04:49:34;;;;;;;1999.90;999.90;;;;;;;20.77;100.00;95170.91;5065504;28;20170;-54
2023/06/12 04:52:03;;;;;;;1999.90;999.90;;;;;;;20.64;100.00;95177.94;5064829;28;20176;-50
2023/06/12 04:54:35;;;;;;;1999.90;999.90;;;;;;;20.56;100.00;95174.75;5064678;28;20237;-54
2023/06/12 04:57:03;;;;;;;1999.90;999.90;;;;;;;20.71;100.00;95172.78;5065323;28;20170;-51
2023/06/12 04:59:28;;;;;;;1999.90;999.90;;;;;;;20.99;100.00;95173.38;5064694;28;20224;-55
2023/06/12 05:01:59;;;;;;;1999.90;999.90;;;;;;;21.54;100.00;95171.59;5064511;28;20170;-54
2023/06/12 05:04:24;;;;;;;1999.90;999.90;;;;;;;20.93;100.00;95176.03;5064990;28;20233;-53
2023/06/12 05:06:51;;;;;;;1999.90;999.90;;;;;;;21.08;100.00;95173.28;5064968;28;20170;-53
2023/06/12 05:09:17;;;;;;;1999.90;999.90;;;;;;;21.90;100.00;95176.78;5065346;28;20172;-52
2023/06/12 05:11:42;;;;;;;1999.90;999.90;;;;;;;21.82;100.00;95176.41;5064453;28;20174;-52
2023/06/12 05:14:07;;;;;;;1999.90;999.90;;;;;;;21.17;100.00;95176.78;5064522;28;20166;-58
2023/06/12 05:16:33;;;;;;;1999.90;999.90;;;;;;;21.37;100.00;95176.09;5064407;28;20174;-58
2023/06/12 05:18:58;;;;;;;1999.90;999.90;;;;;;;21.20;100.00;95181.34;5064309;28;20188;-58
2023/06/12 05:21:23;;;;;;;1999.90;999.90;;;;;;;21.23;100.00;95182.44;5064170;28;20241;-58
2023/06/12 05:23:50;;;;;;;1999.90;999.90;;;;;;;20.68;100.00;95184.84;5064848;28;20177;-59
2023/06/12 05:26:15;;;;;;;1999.90;999.90;;;;;;;20.51;100.00;95180.97;5064124;28;20178;-58
2023/06/12 05:28:41;;;;;;;1999.90;999.90;;;;;;;21.44;100.00;95186.84;5064584;28;20206;-59
2023/06/12 05:31:06;;;;;;;1999.90;999.90;;;;;;;20.82;100.00;95183.34;5063722;28;20246;-60
2023/06/12 05:33:32;;;;;;;1999.90;999.90;;;;;;;21.58;100.00;95188.84;5064003;28;20162;-56
2023/06/12 05:35:58;;;;;;;1999.90;999.90;;;;;;;22.14;100.00;95183.72;5064387;28;20162;-58
2023/06/12 05:38:25;;;;;;;1999.90;999.90;;;;;;;22.34;100.00;95183.78;5064068;28;20162;-58
2023/06/12 05:40:51;;;;;;;1999.90;999.90;;;;;;;21.97;100.00;95181.97;5064415;28;20177;-56
2023/06/12 05:43:16;;;;;;;1999.90;999.90;;;;;;;21.93;100.00;95176.56;5064540;28;20158;-55
2023/06/12 05:45:41;;;;;;;1999.90;999.90;;;;;;;21.67;100.00;95186.75;5064222;28;20208;-55
2023/06/12 05:48:07;;;;;;;1999.90;999.90;;;;;;;22.05;100.00;95178.31;5064239;28;20251;-58
2023/06/12 05:50:32;;;;;;;1999.90;999.90;;;;;;;22.14;100.00;95180.94;5063854;28;20200;-58
2023/06/12 05:52:57;;;;;;;1999.90;999.90;;;;;;;21.94;100.00;95189.25;5063707;28;20173;-60
2023/06/12 05:55:23;;;;;;;1999.90;999.90;;;;;;;22.22;100.00;95192.47;5064162;28;20166;-57
2023/06/12 05:57:48;;;;;;;1999.90;999.90;;;;;;;22.31;100.00;95187.53;5063161;28;20233;-59
2023/06/12 06:00:15;;;;;;;1999.90;999.90;;;;;;;22.01;100.00;95183.28;5063557;28;20169;-58
2023/06/12 06:02:42;;;;;;;1999.90;999.90;;;;;;;22.62;100.00;95191.78;5063377;28;20225;-59
2023/06/12 06:05:09;;;;;;;1999.90;999.90;;;;;;;22.44;100.00;95198.34;5063653;28;20179;-58
2023/06/12 06:07:35;;;;;;;1999.90;999.90;;;;;;;21.90;100.00;95188.69;5063984;28;20190;-59
2023/06/12 06:10:00;;;;;;;1999.90;999.90;;;;;;;22.11;100.00;95193.03;5063492;28;20187;-58
2023/06/12 06:12:26;;;;;;;1999.90;999.90;;;;;;;22.32;100.00;95202.97;5063562;28;20161;-58
2023/06/12 06:14:52;;;;;;;1999.90;999.90;;;;;;;22.21;100.00;95202.81;5063535;28;20216;-58
2023/06/12 06:17:19;;;;;;;1999.90;999.90;;;;;;;22.32;100.00;95191.84;5063380;28;20170;-58
2023/06/12 06:19:44;;;;;;;1999.90;999.90;;;;;;;22.68;100.00;95206.56;5063974;28;20166;-58
2023/06/12 06:22:10;;;;;;;1999.90;999.90;;;;;;;21.94;100.00;95203.16;5064014;28;20242;-59
2023/06/12 06:24:35;;;;;;;1999.90;999.90;;;;;;;22.91;100.00;95208.38;5063150;28;20185;-59
2023/06/12 06:27:02;;;;;;;1999.90;999.90;;;;;;;22.71;100.00;95205.56;5063455;28;20220;-59
2023/06/12 06:29:27;;;;;;;1999.90;999.90;;;;;;;22.94;100.00;95212.97;5063438;28;20216;-61
2023/06/12 06:31:53;;;;;;;1999.90;999.90;;;;;;;23.03;100.00;95212.81;5063399;28;20198;-59
2023/06/12 06:34:18;;;;;;;1999.90;999.90;;;;;;;23.62;100.00;95214.00;5063333;28;20170;-59
2023/06/12 06:36:44;;;;;;;1999.90;999.90;;;;;;;23.55;100.00;95218.00;5063073;28;20220;-58
2023/06/12 06:39:09;;;;;;;1999.90;999.90;;;;;;;23.60;100.00;95216.53;5063754;28;20216;-59
2023/06/12 06:41:35;;;;;;;1999.90;999.90;;;;;;;24.22;100.00;95219.38;5063290;28;20236;-59
2023/06/12 06:44:00;;;;;;;1999.90;999.90;;;;;;;23.83;100.00;95215.47;5063243;28;20174;-60
2023/06/12 06:46:25;;;;;;;1999.90;999.90;;;;;;;23.22;100.00;95230.78;5063806;28;20174;-59
2023/06/12 06:48:51;;;;;;;1999.90;999.90;;;;;;;23.75;100.00;95219.97;5063490;28;20205;-59
2023/06/12 06:51:17;;;;;;;1999.90;999.90;;;;;;;23.17;100.00;95226.69;5063633;28;20169;-59
2023/06/12 06:53:42;;;;;;;1999.90;999.90;;;;;;;23.70;100.00;95217.88;5063060;28;20169;-59
2023/06/12 06:56:08;;;;;;;1999.90;999.90;;;;;;;24.08;100.00;95220.28;5063185;28;20173;-59
2023/06/12 06:58:33;;;;;;;1999.90;999.90;;;;;;;23.94;100.00;95215.59;5063299;28;20258;-59
2023/06/12 07:00:58;;;;;;;1999.90;999.90;;;;;;;23.74;100.00;95215.66;5063619;28;20170;-59
2023/06/12 07:03:24;;;;;;;1999.90;999.90;;;;;;;23.69;100.00;95217.13;5062740;28;20223;-59
2023/06/12 07:05:49;;;;;;;1999.90;999.90;;;;;;;24.97;100.00;95212.00;5063793;28;20174;-59
2023/06/12 07:08:15;;;;;;;1999.90;999.90;;;;;;;24.89;100.00;95204.59;5062932;28;20226;-59
2023/06/12 07:10:41;;;;;;;1999.90;999.90;;;;;;;25.94;97.76;95202.88;5064744;28;20166;-60
2023/06/12 07:13:06;;;;;;;1999.90;999.90;;;;;;;26.13;92.61;95215.13;5066724;28;20181;-59
2023/06/12 07:15:32;;;;;;;1999.90;999.90;;;;;;;26.60;89.60;95214.09;5066631;28;20208;-59
2023/06/12 07:17:57;;;;;;;1999.90;999.90;;;;;;;26.57;93.49;95220.69;5066655;28;20176;-58
2023/06/12 07:20:23;;;;;;;1999.90;999.90;;;;;;;26.57;91.75;95211.50;5066667;28;20170;-58
2023/06/12 07:22:48;;;;;;;1999.90;999.90;;;;;;;27.56;79.96;95220.41;5066526;28;20170;-58
2023/06/12 07:25:14;;;;;;;1999.90;999.90;;;;;;;26.53;86.06;95211.00;5066511;28;20197;-58
2023/06/12 07:27:39;;;;;;;1999.90;999.90;;;;;;;28.61;74.17;95204.84;5066413;28;20197;-58
2023/06/12 07:30:05;;;;;;;1999.90;999.90;;;;;;;28.26;73.33;95203.59;5066507;28;20233;-58
2023/06/12 07:32:31;;;;;;;1999.90;999.90;;;;;;;28.45;69.83;95211.38;5066363;28;20208;-58
2023/06/12 07:34:56;;;;;;;1999.90;999.90;;;;;;;28.92;69.93;95209.91;5066304;28;20194;-58
2023/06/12 07:37:22;;;;;;;1999.90;999.90;;;;;;;27.96;72.86;95208.44;5066307;28;20174;-58
2023/06/12 07:39:48;;;;;;;1999.90;999.90;;;;;;;27.22;76.54;95224.66;5066290;28;20172;-58
2023/06/12 07:42:14;;;;;;;1999.90;999.90;;;;;;;26.52;79.44;95213.06;5066463;28;20176;-58
2023/06/12 07:44:40;;;;;;;1999.90;999.90;;;;;;;26.94;78.35;95221.13;5066604;28;20219;-59
2023/06/12 07:47:06;;;;;;;1999.90;999.90;;;;;;;26.81;79.63;95218.09;5066130;28;20166;-58
2023/06/12 07:49:32;;;;;;;1999.90;999.90;;;;;;;27.08;76.44;95231.31;5066704;28;20181;-58
2023/06/12 07:51:57;;;;;;;1999.90;999.90;;;;;;;27.86;72.57;95210.03;5066040;28;20170;-58
2023/06/12 07:54:23;;;;;;;1999.90;999.90;;;;;;;27.38;73.85;95226.59;5065933;28;20166;-58
2023/06/12 07:56:50;;;;;;;1999.90;999.90;;;;;;;27.24;77.51;95204.50;5065858;28;20182;-58
2023/06/12 07:59:16;;;;;;;1999.90;999.90;;;;;;;28.60;70.24;95212.53;5065876;28;20170;-58
2023/06/12 08:01:41;;;;;;;1999.90;999.90;;;;;;;27.11;76.77;95202.22;5066488;28;20237;-58
2023/06/12 08:04:09;;;;;;;1999.90;999.90;;;;;;;26.85;76.51;95203.84;5065613;28;20256;-58
2023/06/12 08:06:35;;;;;;;1999.90;999.90;;;;;;;26.17;80.41;95200.84;5066193;28;20192;-58
2023/06/12 08:09:00;;;;;;;1999.90;999.90;;;;;;;26.01;81.28;95236.00;5066164;28;20194;-59
2023/06/12 08:11:26;;;;;;;1999.90;999.90;;;;;;;25.86;84.28;95207.44;5065740;28;20197;-58
2023/06/12 08:13:52;;;;;;;1999.90;999.90;;;;;;;25.41;88.51;95203.03;5065544;28;20174;-58
2023/06/12 08:16:17;;;;;;;1999.90;999.90;;;;;;;25.70;87.29;95205.38;5065588;28;20174;-58
2023/06/12 08:18:43;;;;;;;1999.90;999.90;;;;;;;26.53;83.30;95199.81;5065965;28;20197;-59
2023/06/12 08:21:08;;;;;;;1999.90;999.90;;;;;;;27.77;76.37;95196.28;5065262;28;20232;-58
2023/06/12 08:23:34;;;;;;;1999.90;999.90;;;;;;;27.50;74.41;95210.50;5065312;28;20190;-58
2023/06/12 08:26:00;;;;;;;1999.90;999.90;;;;;;;28.07;73.96;95197.13;5065475;28;20166;-58
2023/06/12 08:28:25;;;;;;;1999.90;999.90;;;;;;;26.95;76.32;95205.09;5065192;28;20194;-58
2023/06/12 08:30:50;;;;;;;1999.90;999.90;;;;;;;25.98;80.82;95209.00;5065322;28;20173;-58
2023/06/12 08:33:16;;;;;;;1999.90;999.90;;;;;;;27.42;74.47;95213.06;5065288;28;20161;-58
2023/06/12 08:35:42;;;;;;;1999.90;999.90;;;;;;;26.81;73.78;95229.31;5065675;28;20200;-59
2023/06/12 08:38:08;;;;;;;1999.90;999.90;;;;;;;26.00;78.16;95217.66;5065163;28;20163;-58
2023/06/12 08:40:33;;;;;;;1999.90;999.90;;;;;;;26.90;75.17;95220.66;5065593;28;20241;-58
2023/06/12 08:42:59;;;;;;;1999.90;999.90;;;;;;;26.51;77.78;95216.38;5065109;28;20245;-58
2023/06/12 08:45:32;;;;;;;1999.90;999.90;;;;;;;26.11;79.30;95216.91;5065494;28;20233;-58
2023/06/12 08:47:59;;;;;;;1999.90;999.90;;;;;;;27.87;70.62;95222.78;5064795;28;20247;-58
2023/06/12 08:50:26;;;;;;;1999.90;999.90;;;;;;;26.54;72.87;95220.94;5064920;28;20168;-58
2023/06/12 08:52:52;;;;;;;1999.90;999.90;;;;;;;26.40;79.58;95211.53;5064791;28;20180;-58
2023/06/12 08:55:20;;;;;;;1999.90;999.90;;;;;;;27.00;72.33;95205.06;5065224;28;20182;-58
2023/06/12 08:57:47;;;;;;;1999.90;999.90;;;;;;;27.25;71.34;95209.59;5064491;28;20170;-58
2023/06/12 09:00:13;;;;;;;1999.90;999.90;;;;;;;27.50;68.95;95199.25;5064794;28;20166;-58
2023/06/12 09:02:51;;;;;;;1999.90;999.90;;;;;;;27.73;69.18;95223.88;5064936;28;20240;-58
2023/06/12 09:05:23;;;;;;;1999.90;999.90;;;;;;;26.80;74.26;95205.38;5064478;28;20241;-58
2023/06/12 09:07:50;;;;;;;1999.90;999.90;;;;;;;26.82;74.82;95214.03;5064420;28;20181;-58
2023/06/12 09:10:16;;;;;;;1999.90;999.90;;;;;;;28.29;69.43;95201.78;5064587;28;20162;-58
2023/06/12 09:12:43;;;;;;;1999.90;999.90;;;;;;;28.17;66.35;95205.97;5064747;28;20241;-59
2023/06/12 09:15:09;;;;;;;1999.90;999.90;;;;;;;27.58;67.38;95209.44;5064544;28;20172;-58
2023/06/12 09:17:37;;;;;;;1999.90;999.90;;;;;;;28.15;67.04;95209.31;5064370;28;20284;-58
2023/06/12 09:20:04;;;;;;;1999.90;999.90;;;;;;;27.69;66.94;95200.16;5064359;28;20162;-58
2023/06/12 09:22:30;;;;;;;1999.90;999.90;;;;;;;27.39;67.97;95216.91;5064374;28;20162;-58
2023/06/12 09:24:56;;;;;;;1999.90;999.90;;;;;;;26.94;70.22;95201.50;5064264;28;20166;-58
2023/06/12 09:27:22;;;;;;;1999.90;999.90;;;;;;;25.75;74.67;95199.03;5064155;28;20190;-59
2023/06/12 09:29:47;;;;;;;1999.90;999.90;;;;;;;26.14;75.78;95205.44;5064166;28;20177;-58
2023/06/12 09:32:14;;;;;;;1999.90;999.90;;;;;;;27.05;70.07;95204.28;5064109;28;20188;-58
2023/06/12 09:34:46;;;;;;;1999.90;999.90;;;;;;;26.64;69.54;95209.00;5064069;28;20178;-58
2023/06/12 09:37:14;;;;;;;1999.90;999.90;;;;;;;26.06;72.06;95198.81;5064067;28;20189;-58
2023/06/12 09:39:39;;;;;;;1999.90;999.90;;;;;;;26.98;66.85;95204.81;5064000;28;20166;-58
2023/06/12 09:42:04;;;;;;;1999.90;999.90;;;;;;;27.30;65.25;95199.59;5063988;28;20170;-59
2023/06/12 09:44:30;;;;;;;1999.90;999.90;;;;;;;26.55;64.84;95223.22;5064229;28;20166;-58
2023/06/12 09:47:04;;;;;;;1999.90;999.90;;;;;;;26.29;67.67;95191.94;5064340;28;20173;-58
2023/06/12 09:49:30;;;;;;;1999.90;999.90;;;;;;;26.76;65.69;95199.28;5064438;28;20169;-58
2023/06/12 09:52:00;;;;;;;1999.90;999.90;;;;;;;27.47;61.70;95195.47;5063998;28;20177;-58
2023/06/12 09:54:29;;;;;;;1999.90;999.90;;;;;;;27.24;62.95;95193.28;5063839;28;20162;-57
2023/06/12 09:56:57;;;;;;;1999.90;999.90;;;;;;;26.29;63.19;95222.75;5064291;28;20244;-54
2023/06/12 09:59:27;;;;;;;1999.90;999.90;;;;;;;26.12;61.95;95216.41;5063668;28;20162;-59
2023/06/12 10:01:59;;;;;;;1999.90;999.90;;;;;;;26.10;63.23;95196.53;5064128;28;20220;-59
2023/06/12 10:04:47;;;;;;;1999.90;999.90;;;;;;;26.94;58.75;95181.88;5064044;28;20254;-59
2023/06/12 10:07:22;;;;;;;1999.90;999.90;;;;;;;26.31;61.32;95197.81;5063934;28;20216;-58
2023/06/12 10:09:48;;;;;;;1999.90;999.90;;;;;;;26.94;57.72;95201.50;5064012;28;20166;-59
2023/06/12 10:12:16;;;;;;;1999.90;999.90;;;;;;;26.98;56.46;95199.19;5063584;28;20170;-59
2023/06/12 10:14:42;;;;;;;1999.90;999.90;;;;;;;26.33;58.21;95194.50;5063583;28;20241;-59
2023/06/12 10:17:10;;;;;;;1999.90;999.90;;;;;;;26.57;59.81;95189.88;5063521;28;20170;-59
2023/06/12 10:19:37;;;;;;;1999.90;999.90;;;;;;;27.08;56.63;95186.44;5063416;28;20170;-59
2023/06/12 10:22:06;;;;;;;1999.90;999.90;;;;;;;27.94;53.11;95191.31;5063558;28;20169;-59
2023/06/12 10:24:32;;;;;;;1999.90;999.90;;;;;;;27.73;51.91;95204.22;5063522;28;20237;-61
2023/06/12 10:26:58;;;;;;;1999.90;999.90;;;;;;;26.21;56.42;95193.72;5063435;28;20170;-58
2023/06/12 10:29:31;;;;;;;1999.90;999.90;;;;;;;26.51;57.55;95188.34;5063901;28;20220;-59
2023/06/12 10:32:08;;;;;;;1999.90;999.90;;;;;;;26.86;55.06;95177.31;5063441;28;20181;-58
2023/06/12 10:34:34;;;;;;;1999.90;999.90;;;;;;;27.63;52.59;95179.78;5063777;28;20232;-60
2023/06/12 10:37:22;;;;;;;1999.90;999.90;;;;;;;27.42;51.17;95182.19;5064142;28;20166;-59
2023/06/12 10:39:49;;;;;;;1999.90;999.90;;;;;;;27.75;49.47;95176.38;5063247;28;20166;-59
2023/06/12 10:42:14;;;;;;;1999.90;999.90;;;;;;;27.25;52.18;95178.75;5063116;28;20261;-59
2023/06/12 10:44:42;;;;;;;1999.90;999.90;;;;;;;27.88;50.41;95162.53;5064491;28;20166;-59
2023/06/12 10:47:37;;;;;;;1999.90;999.90;;;;;;;27.34;49.14;95164.41;5067240;28;20166;-59
2023/06/12 10:50:03;;;;;;;1999.90;999.90;;;;;;;27.16;50.47;95175.41;5058380;28;20177;-58